createdAt,value
2023-03-26T00:00:44.298Z,98756.79
2023-03-26T00:06:12.920Z,98755.06
2023-03-26T00:11:17.616Z,98749.29
2023-03-26T00:16:21.197Z,98751.04
2023-03-26T00:21:28.142Z,98751.78
2023-03-26T00:26:33.888Z,98746.69
2023-03-26T00:31:39.920Z,98742.92
2023-03-26T00:36:44.119Z,98734.86
2023-03-26T00:41:46.909Z,98734.59
2023-03-26T00:46:49.814Z,98733.52
2023-03-26T00:51:53.224Z,98731.02
2023-03-26T00:56:56.147Z,98723.40
2023-03-26T01:01:59.181Z,98721.75
2023-03-26T01:07:09.933Z,98719.70
2023-03-26T01:12:17.141Z,98722.17
2023-03-26T01:17:20.343Z,98718.83
2023-03-26T01:22:26.836Z,98721.36
2023-03-26T01:27:54.634Z,98715.00
2023-03-26T01:33:07.510Z,98711.77
2023-03-26T01:38:52.248Z,98710.41
2023-03-26T01:44:06.634Z,98706.16
2023-03-26T01:49:13.852Z,98700.20
2023-03-26T01:54:21.595Z,98689.67
2023-03-26T01:59:42.765Z,98682.52
2023-03-26T02:05:25.093Z,98682.89
2023-03-26T02:10:30.972Z,98682.95
2023-03-26T02:15:33.867Z,98675.24
2023-03-26T02:20:37.527Z,98673.23
2023-03-26T02:25:42.201Z,98666.00
2023-03-26T02:30:46.165Z,98667.82
2023-03-26T02:35:49.132Z,98667.96
2023-03-26T02:40:53.557Z,98666.50
2023-03-26T02:45:57.067Z,98660.23
2023-03-26T02:51:01.217Z,98660.39
2023-03-26T02:56:04.997Z,98662.10
2023-03-26T03:01:08.363Z,98658.86
2023-03-26T03:06:11.300Z,98650.08
2023-03-26T03:11:22.305Z,98638.11
2023-03-26T03:16:25.222Z,98631.00
2023-03-26T03:21:29.292Z,98634.20
2023-03-26T03:26:32.436Z,98634.00
2023-03-26T03:31:35.444Z,98626.63
2023-03-26T03:36:38.765Z,98625.65
2023-03-26T03:41:42.100Z,98627.13
2023-03-26T03:46:44.880Z,98624.33
2023-03-26T03:51:47.980Z,98614.84
2023-03-26T03:56:51.311Z,98612.59
2023-03-26T04:01:54.173Z,98611.43
2023-03-26T04:06:57.004Z,98607.35
2023-03-26T04:11:59.909Z,98612.34
2023-03-26T04:17:05.673Z,98616.38
2023-03-26T04:22:09.611Z,98614.00
2023-03-26T04:27:16.719Z,98604.69
2023-03-26T04:32:34.435Z,98603.94
2023-03-26T04:37:41.429Z,98597.22
2023-03-26T04:42:47.121Z,98588.10
2023-03-26T04:47:50.967Z,98586.90
2023-03-26T04:52:57.190Z,98577.23
2023-03-26T04:58:03.549Z,98575.33
2023-03-26T05:03:10.250Z,98572.86
2023-03-26T05:08:13.212Z,98574.16
2023-03-26T05:13:16.111Z,98577.50
2023-03-26T05:18:19.018Z,98580.52
2023-03-26T05:23:21.920Z,98577.33
2023-03-26T05:28:26.853Z,98575.52
2023-03-26T05:33:30.010Z,98576.79
2023-03-26T05:38:33.191Z,98578.69
2023-03-26T05:43:36.500Z,98575.30
2023-03-26T05:48:39.410Z,98572.73
2023-03-26T05:53:42.308Z,98574.21
2023-03-26T05:58:45.128Z,98579.08
2023-03-26T06:03:50.740Z,98581.55
2023-03-26T06:09:00.879Z,98584.20
2023-03-26T06:14:07.101Z,98587.35
2023-03-26T06:19:09.984Z,98587.33
2023-03-26T06:24:13.048Z,98589.77
2023-03-26T06:29:16.364Z,98591.18
2023-03-26T06:34:19.565Z,98592.71
2023-03-26T06:39:22.561Z,98593.97
2023-03-26T06:44:26.109Z,98597.23
2023-03-26T06:49:29.099Z,98593.06
2023-03-26T06:54:32.001Z,98601.13
2023-03-26T06:59:34.909Z,98596.40
2023-03-26T07:04:38.463Z,98595.55
2023-03-26T07:09:41.332Z,98599.33
2023-03-26T07:14:44.481Z,98601.23
2023-03-26T07:19:47.343Z,98594.75
2023-03-26T07:24:51.112Z,98594.73
2023-03-26T07:29:57.868Z,98594.17
2023-03-26T07:35:22.445Z,98597.59
2023-03-26T07:40:48.219Z,98596.04
2023-03-26T07:45:51.279Z,98595.14
2023-03-26T07:50:55.044Z,98592.88
2023-03-26T07:56:04.391Z,98593.83
2023-03-26T08:01:47.845Z,98597.05
2023-03-26T08:06:58.632Z,98594.09
2023-03-26T08:12:13.927Z,98590.36
2023-03-26T08:17:20.121Z,98592.44
2023-03-26T08:22:38.395Z,98590.77
2023-03-26T08:27:43.506Z,98590.25
2023-03-26T08:32:54.582Z,98591.34
2023-03-26T08:37:58.286Z,98590.47
2023-03-26T08:43:22.855Z,98590.10
2023-03-26T08:48:47.364Z,98591.75
2023-03-26T08:54:19.871Z,98588.91
2023-03-26T08:59:41.609Z,98582.66
2023-03-26T09:05:10.460Z,98582.52
2023-03-26T09:10:40.153Z,98582.83
2023-03-26T09:16:02.042Z,98583.14
2023-03-26T09:21:10.666Z,98582.80
2023-03-26T09:27:04.373Z,98586.83
2023-03-26T09:32:07.444Z,98593.18
2023-03-26T09:37:34.073Z,98596.77
2023-03-26T09:42:49.404Z,98592.96
2023-03-26T09:47:54.992Z,98601.15
2023-03-26T09:53:09.349Z,98597.55
2023-03-26T09:58:30.883Z,98597.72
2023-03-26T10:04:06.246Z,98588.05
2023-03-26T10:09:41.036Z,98594.14
2023-03-26T10:14:59.872Z,98601.40
2023-03-26T10:20:37.731Z,98599.81
2023-03-26T10:26:11.622Z,98598.23
2023-03-26T10:31:48.626Z,98596.79
2023-03-26T10:37:08.876Z,98602.39
2023-03-26T10:42:37.143Z,98601.82
2023-03-26T10:48:12.395Z,98598.45
2023-03-26T10:53:30.865Z,98599.77
2023-03-26T10:58:48.562Z,98597.89
2023-03-26T11:03:55.765Z,98598.59
2023-03-26T11:09:26.377Z,98597.22
2023-03-26T11:14:43.290Z,98602.96
2023-03-26T11:19:57.890Z,98609.76
2023-03-26T11:25:09.801Z,98611.40
2023-03-26T11:30:28.391Z,98605.52
2023-03-26T11:35:39.670Z,98602.32
2023-03-26T11:40:50.695Z,98602.48
2023-03-26T11:45:54.167Z,98601.14
2023-03-26T11:51:04.467Z,98597.80
2023-03-26T11:56:15.253Z,98590.37
2023-03-26T12:01:30.147Z,98586.85
2023-03-26T12:06:33.132Z,98592.81
2023-03-26T12:11:36.444Z,98595.96
2023-03-26T12:17:00.831Z,98610.16
2023-03-26T12:22:04.368Z,98638.84
2023-03-26T12:27:22.225Z,98653.91
2023-03-26T12:32:35.510Z,98670.06
2023-03-26T12:37:47.323Z,98671.77
2023-03-26T12:44:46.607Z,98652.68
2023-03-26T12:48:25.664Z,98635.45
2023-03-26T12:53:34.706Z,98636.66
2023-03-26T12:59:01.919Z,98630.11
2023-03-26T13:04:24.514Z,98630.55
2023-03-26T13:09:43.882Z,98629.52
2023-03-26T13:14:58.619Z,98625.82
2023-03-26T13:20:12.430Z,98617.91
2023-03-26T13:25:21.158Z,98615.98
2023-03-26T13:30:59.342Z,98617.01
2023-03-26T13:36:24.001Z,98612.92
2023-03-26T13:41:59.963Z,98619.73
2023-03-26T13:47:15.012Z,98618.01
2023-03-26T13:52:30.836Z,98627.11
2023-03-26T13:57:39.671Z,98632.09
2023-03-26T14:02:44.309Z,98630.84
2023-03-26T14:07:57.464Z,98635.39
2023-03-26T14:13:07.738Z,98633.75
2023-03-26T14:18:22.830Z,98625.96
2023-03-26T14:23:45.495Z,98629.79
2023-03-26T14:28:57.004Z,98632.22
2023-03-26T14:34:52.570Z,98636.29
2023-03-26T14:39:55.602Z,98652.09
2023-03-26T14:45:07.358Z,98665.35
2023-03-26T14:50:48.663Z,98670.28
2023-03-26T14:55:54.335Z,98674.77
2023-03-26T15:01:19.097Z,98674.52
2023-03-26T15:06:42.023Z,98677.32
2023-03-26T15:12:12.494Z,98681.94
2023-03-26T15:17:35.878Z,98684.83
2023-03-26T15:22:54.259Z,98684.56
2023-03-26T15:28:35.316Z,98691.21
2023-03-26T15:33:47.128Z,98693.29
2023-03-26T15:39:17.989Z,98689.05
2023-03-26T15:44:40.959Z,98691.02
2023-03-26T15:50:35.986Z,98696.33
2023-03-26T15:55:57.139Z,98703.08
2023-03-26T16:01:19.834Z,98702.15
2023-03-26T16:06:31.053Z,98694.12
2023-03-26T16:11:50.072Z,98698.90
2023-03-26T16:17:00.610Z,98700.14
2023-03-26T16:22:15.530Z,98712.02
2023-03-26T16:27:30.394Z,98721.59
2023-03-26T16:32:35.608Z,98726.83
2023-03-26T16:37:46.258Z,98734.61
2023-03-26T16:43:26.966Z,98731.47
2023-03-26T16:48:39.074Z,98725.89
2023-03-26T16:53:46.172Z,98722.79
2023-03-26T16:58:55.104Z,98718.70
2023-03-26T17:04:20.624Z,98716.24
2023-03-26T17:10:03.466Z,98721.02
2023-03-26T17:15:41.313Z,98727.56
2023-03-26T17:20:57.910Z,98733.23
2023-03-26T17:26:08.661Z,98740.73
2023-03-26T17:31:35.364Z,98743.68
2023-03-26T17:36:42.478Z,98754.85
2023-03-26T17:41:51.132Z,98763.06
2023-03-26T17:46:57.052Z,98775.61
2023-03-26T17:52:17.061Z,98775.94
2023-03-26T17:57:30.837Z,98766.59
2023-03-26T18:02:47.763Z,98765.60
2023-03-26T18:08:03.676Z,98764.44
2023-03-26T18:13:23.099Z,98766.73
2023-03-26T18:18:37.368Z,98770.42
2023-03-26T18:23:47.666Z,98770.86
2023-03-26T18:28:54.442Z,98767.67
2023-03-26T18:34:09.526Z,98763.16
2023-03-26T18:39:13.577Z,98759.81
2023-03-26T18:44:18.672Z,98764.09
2023-03-26T18:49:24.157Z,98763.59
2023-03-26T18:54:34.288Z,98748.34
2023-03-26T18:59:41.436Z,98749.52
2023-03-26T19:04:47.108Z,98750.06
2023-03-26T19:09:56.063Z,98751.48
2023-03-26T19:15:10.874Z,98760.40
2023-03-26T19:20:21.073Z,98766.41
2023-03-26T19:25:37.133Z,98774.67
2023-03-26T19:30:42.221Z,98772.56
2023-03-26T19:35:51.924Z,98774.89
2023-03-26T19:40:57.396Z,98782.20
2023-03-26T19:46:01.339Z,98780.04
2023-03-26T19:51:06.299Z,98781.02
2023-03-26T19:56:10.237Z,98781.92
2023-03-26T20:01:21.556Z,98785.30
2023-03-26T20:06:41.719Z,98791.45
2023-03-26T20:11:47.203Z,98793.00
2023-03-26T20:16:50.137Z,98784.55
2023-03-26T20:21:53.542Z,98777.77
2023-03-26T20:26:56.245Z,98771.89
2023-03-26T20:31:59.326Z,98772.58
2023-03-26T20:37:02.249Z,98770.08
2023-03-26T20:42:05.331Z,98772.44
2023-03-26T20:47:11.005Z,98773.50
2023-03-26T20:52:15.538Z,98778.31
2023-03-26T20:57:18.793Z,98777.14
2023-03-26T21:02:21.962Z,98775.98
2023-03-26T21:07:24.868Z,98776.98
2023-03-26T21:12:33.619Z,98780.30
2023-03-26T21:17:37.485Z,98781.88
2023-03-26T21:23:07.678Z,98783.63
2023-03-26T21:28:39.753Z,98786.92
2023-03-26T21:33:45.870Z,98784.00
2023-03-26T21:38:50.645Z,98782.55
2023-03-26T21:43:53.594Z,98784.09
2023-03-26T21:48:56.907Z,98785.69
2023-03-26T21:54:00.506Z,98779.05
2023-03-26T21:59:24.628Z,98776.94
2023-03-26T22:04:48.934Z,98778.83
2023-03-26T22:09:52.253Z,98790.27
2023-03-26T22:14:55.064Z,98788.91
2023-03-26T22:19:57.954Z,98780.49
2023-03-26T22:25:01.305Z,98776.21
2023-03-26T22:30:04.639Z,98776.20
2023-03-26T22:35:08.355Z,98779.50
2023-03-26T22:40:14.699Z,98779.17
2023-03-26T22:45:17.701Z,98786.18
2023-03-26T22:50:20.804Z,98789.45
2023-03-26T22:55:28.994Z,98786.48
2023-03-26T23:00:32.959Z,98789.42
2023-03-26T23:05:35.862Z,98791.41
2023-03-26T23:10:42.595Z,98794.86
2023-03-26T23:15:45.609Z,98793.80
2023-03-26T23:20:55.488Z,98791.44
2023-03-26T23:26:03.871Z,98792.65
2023-03-26T23:31:09.509Z,98790.66
2023-03-26T23:36:14.802Z,98781.70
2023-03-26T23:41:21.750Z,98776.96
2023-03-26T23:46:31.072Z,98779.64
2023-03-26T23:51:36.214Z,98774.08
2023-03-26T23:56:39.128Z,98772.21
